Terminal Aerodrome Forecast
Issued by NWS

Home | Current Version | Previous Version | Text Only | Print | Product List | Glossary On
Versions: 1 2 3 4 5 6 7 8 9 10 11 12 13 14 15 16 17 18 19 20 21 22 23 24 25 26 27 28
587
FTUS43 KGLD 112327
TAFMCK
TAF
KMCK 112327Z 1200/1224 VRB03KT P6SM SCT250
     FM120800 32008KT P6SM BKN200
     FM121100 34005KT 4SM BR BKN015
     FM121500 33005KT 1SM BR OVC004
     FM121900 05005KT 5SM BR OVC007
     FM122100 07005KT P6SM OVC015=

USA.gov is the U.S. government's official web portal to all federal, state and local government web resources and services.